createdAt,value
2022-12-05T00:01:35.379Z,22.25
2022-12-05T00:04:03.449Z,22.50
2022-12-05T00:06:30.685Z,21.45
2022-12-05T00:08:57.795Z,22.92
2022-12-05T00:11:25.885Z,23.63
2022-12-05T00:13:52.879Z,23.38
2022-12-05T00:16:20.806Z,24.50
2022-12-05T00:18:47.544Z,22.67
2022-12-05T00:21:17.829Z,23.77
2022-12-05T00:23:44.050Z,23.15
2022-12-05T00:26:10.715Z,21.77
2022-12-05T00:28:37.240Z,22.80
2022-12-05T00:31:04.268Z,23.77
2022-12-05T00:33:30.518Z,22.05
2022-12-05T00:36:01.191Z,22.83
2022-12-05T00:38:27.428Z,22.58
2022-12-05T00:40:53.647Z,24.33
2022-12-05T00:43:19.871Z,23.58
2022-12-05T00:45:46.124Z,22.40
2022-12-05T00:48:12.374Z,23.38
2022-12-05T00:50:38.606Z,22.05
2022-12-05T00:53:04.806Z,21.42
2022-12-05T00:55:31.062Z,21.95
2022-12-05T00:57:57.288Z,22.92
2022-12-05T01:00:23.594Z,23.67
2022-12-05T01:02:49.828Z,22.10
2022-12-05T01:05:16.144Z,22.30
2022-12-05T01:07:42.575Z,22.40
2022-12-05T01:10:08.983Z,21.40
2022-12-05T01:12:35.248Z,22.73
2022-12-05T01:15:01.519Z,22.65
2022-12-05T01:17:27.834Z,23.35
2022-12-05T01:19:54.255Z,23.25
2022-12-05T01:22:20.498Z,24.17
2022-12-05T01:24:46.749Z,20.67
2022-12-05T01:27:13.025Z,22.40
2022-12-05T01:29:39.313Z,23.27
2022-12-05T01:32:05.772Z,22.08
2022-12-05T01:34:32.053Z,21.98
2022-12-05T01:36:58.324Z,22.83
2022-12-05T01:39:24.582Z,23.60
2022-12-05T01:41:53.964Z,22.05
2022-12-05T01:44:23.262Z,20.73
2022-12-05T01:46:50.776Z,22.25
2022-12-05T01:49:22.368Z,21.88
2022-12-05T01:52:03.341Z,22.25
2022-12-05T01:54:30.457Z,22.83
2022-12-05T01:56:59.526Z,23.20
2022-12-05T01:59:26.796Z,23.05
2022-12-05T02:01:53.194Z,22.75
2022-12-05T02:04:19.448Z,22.10
2022-12-05T02:06:46.641Z,21.58
2022-12-05T02:09:12.890Z,21.83
2022-12-05T02:11:46.614Z,22.30
2022-12-05T02:14:23.204Z,21.50
2022-12-05T02:17:08.256Z,22.10
2022-12-05T02:19:49.848Z,21.60
2022-12-05T02:22:16.177Z,22.45
2022-12-05T02:24:45.384Z,24.75
2022-12-05T02:27:28.185Z,22.15
2022-12-05T02:30:00.484Z,23.10
2022-12-05T02:32:34.583Z,21.20
2022-12-05T02:35:08.007Z,23.13
2022-12-05T02:37:46.587Z,21.20
2022-12-05T02:40:15.276Z,32.15
2022-12-05T02:42:49.063Z,31.23
2022-12-05T02:45:17.504Z,28.02
2022-12-05T02:47:51.130Z,27.77
2022-12-05T02:50:20.756Z,22.98
2022-12-05T02:52:48.597Z,23.50
2022-12-05T02:55:15.524Z,22.95
2022-12-05T03:00:08.320Z,22.08
2022-12-05T03:02:34.897Z,21.75
2022-12-05T03:05:20.648Z,22.95
2022-12-05T03:07:48.168Z,24.65
2022-12-05T03:10:15.387Z,22.27
2022-12-05T03:12:44.551Z,28.95
2022-12-05T03:15:10.825Z,27.90
2022-12-05T03:17:41.480Z,26.60
2022-12-05T03:20:12.430Z,26.58
2022-12-05T03:22:43.205Z,26.52
2022-12-05T03:25:10.231Z,25.23
2022-12-05T03:27:39.523Z,27.27
2022-12-05T03:30:09.956Z,29.52
2022-12-05T03:32:45.706Z,27.38
2022-12-05T03:35:23.261Z,26.52
2022-12-05T03:37:54.811Z,31.55
2022-12-05T03:40:28.035Z,26.48
2022-12-05T03:43:03.206Z,28.65
2022-12-05T03:45:36.514Z,28.60
2022-12-05T03:48:18.220Z,25.95
2022-12-05T03:50:45.331Z,27.90
2022-12-05T03:53:20.134Z,26.05
2022-12-05T03:55:50.222Z,27.83
2022-12-05T03:58:26.136Z,29.63
2022-12-05T04:00:53.626Z,27.52
2022-12-05T04:03:23.185Z,24.15
2022-12-05T04:05:54.047Z,26.85
2022-12-05T04:08:23.740Z,26.02
2022-12-05T04:10:51.340Z,26.10
2022-12-05T04:13:20.323Z,27.17
2022-12-05T04:16:09.026Z,25.58
2022-12-05T04:18:38.733Z,25.52
2022-12-05T04:21:24.101Z,25.08
2022-12-05T04:24:10.620Z,27.65
2022-12-05T04:26:40.071Z,23.92
2022-12-05T04:29:10.554Z,25.13
2022-12-05T04:31:42.075Z,26.65
2022-12-05T04:34:11.603Z,25.42
2022-12-05T04:36:43.317Z,26.25
2022-12-05T04:39:17.778Z,24.85
2022-12-05T04:41:44.501Z,24.27
2022-12-05T04:44:12.432Z,24.83
2022-12-05T04:46:40.642Z,22.98
2022-12-05T04:49:08.068Z,23.80
2022-12-05T04:51:35.243Z,23.83
2022-12-05T04:54:04.816Z,23.10
2022-12-05T04:56:33.856Z,19.60
2022-12-05T04:59:00.108Z,20.05
2022-12-05T05:01:35.795Z,21.80
2022-12-05T05:04:11.268Z,21.50
2022-12-05T05:06:38.514Z,23.27
2022-12-05T05:09:04.846Z,21.10
2022-12-05T05:11:35.168Z,22.73
2022-12-05T05:14:01.885Z,22.75
2022-12-05T05:16:29.500Z,23.00
2022-12-05T05:18:55.767Z,21.27
2022-12-05T05:21:27.911Z,21.90
2022-12-05T05:23:54.475Z,21.40
2022-12-05T05:26:21.424Z,23.80
2022-12-05T05:28:48.508Z,23.05
2022-12-05T05:31:15.031Z,24.10
2022-12-05T05:33:41.656Z,22.65
2022-12-05T05:36:11.746Z,23.75
2022-12-05T05:38:39.316Z,23.42
2022-12-05T05:41:05.803Z,24.83
2022-12-05T05:43:32.207Z,22.38
2022-12-05T05:46:05.850Z,21.85
2022-12-05T05:48:32.127Z,21.10
2022-12-05T05:50:59.030Z,23.15
2022-12-05T05:55:51.418Z,21.00
2022-12-05T05:58:17.665Z,23.20
2022-12-05T06:00:44.086Z,21.83
2022-12-05T06:03:10.477Z,21.42
2022-12-05T06:05:36.775Z,22.20
2022-12-05T06:08:04.002Z,23.95
2022-12-05T06:10:30.395Z,23.23
2022-12-05T06:12:57.117Z,21.23
2022-12-05T06:15:23.662Z,23.52
2022-12-05T06:17:49.932Z,23.40
2022-12-05T06:20:16.202Z,26.73
2022-12-05T06:22:42.449Z,31.08
2022-12-05T06:25:08.819Z,34.80
2022-12-05T06:27:35.230Z,23.98
2022-12-05T06:30:01.609Z,25.90
2022-12-05T06:32:28.365Z,24.88
2022-12-05T06:34:54.585Z,22.70
2022-12-05T06:37:21.054Z,25.83
2022-12-05T06:39:47.283Z,24.15
2022-12-05T06:42:13.520Z,24.40
2022-12-05T06:44:40.454Z,25.70
2022-12-05T06:49:37.573Z,26.85
2022-12-05T06:52:04.432Z,22.00
2022-12-05T06:54:30.659Z,22.25
2022-12-05T06:56:56.999Z,21.02
2022-12-05T06:59:23.274Z,20.50
2022-12-05T07:01:50.324Z,23.58
2022-12-05T07:04:20.136Z,21.30
2022-12-05T07:06:50.572Z,21.58
2022-12-05T07:09:18.489Z,23.05
2022-12-05T07:11:51.001Z,22.67
2022-12-05T07:14:39.024Z,22.08
2022-12-05T07:17:04.311Z,20.85
2022-12-05T07:19:30.566Z,23.00
2022-12-05T07:21:56.790Z,22.08
2022-12-05T07:24:23.092Z,20.70
2022-12-05T07:26:49.347Z,21.17
2022-12-05T07:29:15.625Z,20.75
2022-12-05T07:31:41.926Z,21.85
2022-12-05T07:34:08.355Z,21.67
2022-12-05T07:36:34.665Z,22.20
2022-12-05T07:39:00.943Z,23.98
2022-12-05T07:41:28.688Z,35.15
2022-12-05T07:43:56.197Z,27.83
2022-12-05T07:46:22.886Z,24.80
2022-12-05T07:48:49.678Z,23.58
2022-12-05T07:51:16.294Z,28.42
2022-12-05T07:53:44.235Z,23.10
2022-12-05T07:56:11.963Z,22.08
2022-12-05T07:58:38.315Z,23.90
2022-12-05T08:01:07.493Z,22.15
2022-12-05T08:03:34.089Z,23.05
2022-12-05T08:06:04.422Z,20.92
2022-12-05T08:08:30.744Z,21.65
2022-12-05T08:10:57.150Z,22.15
2022-12-05T08:13:23.433Z,22.60
2022-12-05T08:15:49.946Z,21.02
2022-12-05T08:18:16.175Z,20.73
2022-12-05T08:20:42.391Z,22.35
2022-12-05T08:23:08.702Z,21.85
2022-12-05T08:25:34.987Z,20.65
2022-12-05T08:28:01.280Z,21.65
2022-12-05T08:30:27.605Z,20.98
2022-12-05T08:32:53.936Z,22.75
2022-12-05T08:35:20.188Z,21.35
2022-12-05T08:37:46.431Z,22.48
2022-12-05T08:40:12.854Z,22.05
2022-12-05T08:42:39.097Z,19.80
2022-12-05T08:45:05.591Z,22.15
2022-12-05T08:47:32.598Z,21.23
2022-12-05T08:49:59.414Z,21.42
2022-12-05T08:52:25.945Z,23.60
2022-12-05T08:54:52.243Z,22.38
2022-12-05T08:57:18.632Z,23.25
2022-12-05T08:59:44.944Z,20.17
2022-12-05T09:02:11.835Z,19.58
2022-12-05T09:07:04.296Z,30.70
2022-12-05T09:09:32.503Z,24.35
2022-12-05T09:12:00.135Z,21.35
2022-12-05T09:14:32.592Z,21.23
2022-12-05T09:16:59.728Z,22.17
2022-12-05T09:19:27.545Z,23.00
2022-12-05T09:21:54.574Z,19.98
2022-12-05T09:24:20.908Z,22.73
2022-12-05T09:26:47.118Z,22.65
2022-12-05T09:29:17.043Z,22.52
2022-12-05T09:31:44.415Z,21.73
2022-12-05T09:34:11.088Z,23.08
2022-12-05T09:36:37.451Z,27.27
2022-12-05T09:39:05.752Z,24.95
2022-12-05T09:42:02.802Z,20.00
2022-12-05T09:44:41.596Z,20.20
2022-12-05T09:47:26.244Z,22.13
2022-12-05T09:49:57.537Z,21.98
2022-12-05T09:52:26.919Z,20.35
2022-12-05T09:54:53.570Z,20.88
2022-12-05T09:57:27.746Z,21.30
2022-12-05T09:59:57.135Z,22.67
2022-12-05T10:02:32.425Z,21.27
2022-12-05T10:05:03.179Z,20.85
2022-12-05T10:07:35.965Z,19.38
2022-12-05T10:10:20.215Z,20.08
2022-12-05T10:13:05.733Z,19.92
2022-12-05T10:15:35.213Z,19.88
2022-12-05T10:18:20.150Z,20.38
2022-12-05T10:21:05.531Z,18.73
2022-12-05T10:23:57.621Z,19.48
2022-12-05T10:26:23.917Z,19.10
2022-12-05T10:28:52.825Z,19.48
2022-12-05T10:31:22.494Z,18.90
2022-12-05T10:33:51.589Z,21.77
2022-12-05T10:36:17.883Z,20.52
2022-12-05T10:38:44.780Z,21.90
2022-12-05T10:43:39.269Z,51.25
2022-12-05T10:46:07.846Z,65.38
2022-12-05T10:48:39.441Z,32.75
2022-12-05T10:51:06.471Z,23.83
2022-12-05T10:53:39.204Z,24.67
2022-12-05T10:56:30.532Z,24.88
2022-12-05T10:58:58.496Z,24.05
2022-12-05T11:01:26.894Z,21.80
2022-12-05T11:04:00.879Z,22.52
2022-12-05T11:06:28.628Z,19.85
2022-12-05T11:09:04.443Z,19.38
2022-12-05T11:11:33.321Z,20.75
2022-12-05T11:14:07.495Z,20.63
2022-12-05T11:16:35.640Z,20.35
2022-12-05T11:19:22.857Z,20.45
2022-12-05T11:21:49.713Z,20.50
2022-12-05T11:26:42.666Z,20.13
2022-12-05T11:29:28.808Z,22.38
2022-12-05T11:31:55.129Z,19.58
2022-12-05T11:34:23.041Z,19.83
2022-12-05T11:37:01.744Z,17.08
2022-12-05T11:39:27.971Z,19.17
2022-12-05T11:42:09.566Z,19.00
2022-12-05T11:44:44.825Z,18.23
2022-12-05T11:47:16.988Z,19.10
2022-12-05T11:50:00.900Z,20.60
2022-12-05T11:52:47.864Z,18.75
2022-12-05T11:55:21.757Z,19.88
2022-12-05T11:58:03.251Z,23.08
2022-12-05T12:00:32.982Z,22.27
2022-12-05T12:03:18.071Z,18.83
2022-12-05T12:05:44.368Z,22.85
2022-12-05T12:08:19.958Z,22.25
2022-12-05T12:10:54.107Z,20.00
2022-12-05T12:13:20.303Z,18.10
2022-12-05T12:15:52.139Z,17.08
2022-12-05T12:18:18.344Z,18.27
2022-12-05T12:20:50.687Z,17.13
2022-12-05T12:23:27.718Z,16.75
2022-12-05T12:26:12.705Z,16.65
2022-12-05T12:28:45.953Z,15.60
2022-12-05T12:31:12.231Z,17.45
2022-12-05T12:33:50.022Z,17.40
2022-12-05T12:36:24.882Z,21.67
2022-12-05T12:39:09.507Z,22.00
2022-12-05T12:41:46.236Z,18.23
2022-12-05T12:44:15.563Z,14.50
2022-12-05T12:46:46.227Z,19.08
2022-12-05T12:49:22.128Z,16.08
2022-12-05T12:51:53.210Z,23.73
2022-12-05T12:54:47.034Z,20.58
2022-12-05T12:57:22.102Z,22.33
2022-12-05T12:59:59.130Z,14.02
2022-12-05T13:02:39.482Z,14.07
2022-12-05T13:05:19.452Z,18.40
2022-12-05T13:07:51.009Z,14.80
2022-12-05T13:10:23.824Z,13.70
2022-12-05T13:12:50.500Z,14.43
2022-12-05T13:15:18.729Z,13.48
2022-12-05T13:17:47.610Z,14.60
2022-12-05T13:20:18.225Z,14.88
2022-12-05T13:22:45.158Z,15.40
2022-12-05T13:27:37.692Z,4.72
2022-12-05T13:30:08.084Z,6.00
2022-12-05T13:32:40.219Z,5.47
2022-12-05T13:35:06.419Z,4.00
2022-12-05T13:37:52.269Z,3.55
2022-12-05T13:40:42.617Z,3.92
2022-12-05T13:43:09.949Z,4.28
2022-12-05T13:45:36.266Z,4.05
2022-12-05T13:48:11.580Z,4.40
2022-12-05T13:50:51.587Z,5.05
2022-12-05T13:53:27.216Z,5.95
2022-12-05T13:55:56.269Z,5.60
2022-12-05T13:58:22.506Z,5.57
2022-12-05T14:00:52.764Z,4.88
2022-12-05T14:03:22.215Z,5.40
2022-12-05T14:05:53.097Z,3.97
2022-12-05T14:08:31.536Z,4.65
2022-12-05T14:10:57.742Z,4.40
2022-12-05T14:13:24.143Z,4.65
2022-12-05T14:15:51.196Z,4.20
2022-12-05T14:21:02.175Z,2.80
2022-12-05T14:23:28.391Z,3.22
2022-12-05T14:26:18.741Z,2.63
2022-12-05T14:28:47.963Z,2.95
2022-12-05T14:31:14.273Z,3.38
2022-12-05T14:33:40.705Z,3.22
2022-12-05T14:36:08.848Z,3.33
2022-12-05T14:38:39.253Z,4.75
2022-12-05T14:41:17.307Z,4.53
2022-12-05T14:43:43.843Z,6.45
2022-12-05T14:46:25.500Z,5.75
2022-12-05T14:48:52.145Z,4.88
2022-12-05T14:51:38.755Z,5.60
2022-12-05T14:54:10.424Z,4.57
2022-12-05T14:56:59.371Z,7.15
2022-12-05T14:59:28.891Z,8.73
2022-12-05T15:01:57.025Z,39.72
2022-12-05T15:04:38.447Z,47.30
2022-12-05T15:07:08.696Z,6.93
2022-12-05T15:09:53.505Z,20.10
2022-12-05T15:12:25.082Z,9.98
2022-12-05T15:14:54.226Z,11.18
2022-12-05T15:17:23.107Z,9.63
2022-12-05T15:19:52.310Z,13.52
2022-12-05T15:22:21.227Z,5.30
2022-12-05T15:24:47.455Z,5.20
2022-12-05T15:27:14.222Z,7.45
2022-12-05T15:29:41.066Z,7.80
2022-12-05T15:34:36.566Z,3.95
2022-12-05T15:37:21.886Z,3.40
2022-12-05T15:39:56.939Z,2.97
2022-12-05T15:42:30.220Z,4.43
2022-12-05T15:45:12.905Z,2.70
2022-12-05T15:47:40.109Z,2.80
2022-12-05T15:50:06.864Z,3.08
2022-12-05T15:52:33.124Z,2.65
2022-12-05T15:55:00.814Z,2.75
2022-12-05T15:57:37.722Z,3.03
2022-12-05T16:00:06.993Z,3.78
2022-12-05T16:02:42.116Z,3.15
2022-12-05T16:05:22.026Z,5.70
2022-12-05T16:07:49.600Z,17.90
2022-12-05T16:10:16.643Z,12.45
2022-12-05T16:12:43.092Z,6.22
2022-12-05T16:15:39.195Z,3.65
2022-12-05T16:18:06.066Z,3.33
2022-12-05T16:23:00.514Z,6.30
2022-12-05T16:25:28.262Z,5.13
2022-12-05T16:28:15.660Z,4.68
2022-12-05T16:30:52.394Z,4.43
2022-12-05T16:33:18.654Z,4.85
2022-12-05T16:35:45.768Z,4.82
2022-12-05T16:38:19.475Z,6.07
2022-12-05T16:40:45.703Z,6.13
2022-12-05T16:43:24.308Z,9.18
2022-12-05T16:45:51.337Z,7.00
2022-12-05T16:48:20.842Z,7.30
2022-12-05T16:50:47.384Z,7.97
2022-12-05T16:53:28.484Z,9.73
2022-12-05T16:55:55.341Z,6.65
2022-12-05T17:00:48.357Z,3.17
2022-12-05T17:03:33.563Z,2.20
2022-12-05T17:06:00.955Z,3.28
2022-12-05T17:08:27.313Z,3.67
2022-12-05T17:10:53.680Z,6.30
2022-12-05T17:13:20.174Z,5.47
2022-12-05T17:15:46.443Z,3.13
2022-12-05T17:18:13.708Z,2.80
2022-12-05T17:20:41.446Z,2.08
2022-12-05T17:23:10.981Z,1.75
2022-12-05T17:25:38.388Z,1.65
2022-12-05T17:28:04.688Z,1.83
2022-12-05T17:30:30.936Z,1.40
2022-12-05T17:32:57.340Z,2.38
2022-12-05T17:35:23.823Z,2.15
2022-12-05T17:37:50.054Z,3.28
2022-12-05T17:40:16.539Z,3.17
2022-12-05T17:42:43.180Z,3.90
2022-12-05T17:45:11.878Z,1.77
2022-12-05T17:47:38.194Z,1.48
2022-12-05T17:50:05.098Z,1.10
2022-12-05T17:54:57.939Z,1.08
2022-12-05T17:57:24.619Z,1.30
2022-12-05T17:59:50.875Z,1.40
2022-12-05T18:02:20.179Z,3.65
2022-12-05T18:04:46.584Z,2.10
2022-12-05T18:07:12.852Z,1.60
2022-12-05T18:09:39.075Z,2.55
2022-12-05T18:12:05.421Z,2.53
2022-12-05T18:14:35.872Z,2.92
2022-12-05T18:17:03.127Z,1.27
2022-12-05T18:19:29.417Z,2.53
2022-12-05T18:21:55.676Z,6.18
2022-12-05T18:24:21.939Z,6.22
2022-12-05T18:26:48.241Z,11.55
2022-12-05T18:29:14.647Z,8.45
2022-12-05T18:31:42.676Z,3.58
2022-12-05T18:34:08.990Z,1.60
2022-12-05T18:36:35.219Z,2.28
2022-12-05T18:39:01.572Z,3.63
2022-12-05T18:41:27.920Z,17.38
2022-12-05T18:43:54.211Z,7.03
2022-12-05T18:46:20.497Z,5.13
2022-12-05T18:48:48.004Z,4.20
2022-12-05T18:51:22.056Z,4.28
2022-12-05T18:53:52.499Z,3.63
2022-12-05T18:56:22.828Z,3.75
2022-12-05T18:58:57.934Z,5.25
2022-12-05T19:01:25.405Z,6.32
2022-12-05T19:03:51.827Z,9.65
2022-12-05T19:06:19.808Z,12.15
2022-12-05T19:08:46.183Z,10.32
2022-12-05T19:11:13.544Z,6.25
2022-12-05T19:13:40.282Z,5.72
2022-12-05T19:16:07.724Z,7.15
2022-12-05T19:18:34.165Z,6.25
2022-12-05T19:21:00.415Z,6.20
2022-12-05T19:23:26.945Z,4.45
2022-12-05T19:25:59.447Z,3.70
2022-12-05T19:28:25.668Z,4.38
2022-12-05T19:30:58.842Z,3.20
2022-12-05T19:33:25.067Z,3.80
2022-12-05T19:35:51.332Z,3.40
2022-12-05T19:38:17.564Z,3.40
2022-12-05T19:40:44.697Z,3.42
2022-12-05T19:43:10.916Z,7.60
2022-12-05T19:45:38.078Z,4.53
2022-12-05T19:48:05.007Z,4.57
2022-12-05T19:52:57.441Z,3.47
2022-12-05T19:55:23.692Z,3.65
2022-12-05T19:57:49.918Z,3.60
2022-12-05T20:00:19.707Z,3.58
2022-12-05T20:02:46.271Z,3.33
2022-12-05T20:05:13.207Z,3.28
2022-12-05T20:07:39.586Z,2.80
2022-12-05T20:10:06.173Z,3.50
2022-12-05T20:12:32.390Z,4.88
2022-12-05T20:14:58.675Z,5.22
2022-12-05T20:17:24.895Z,10.23
2022-12-05T20:19:51.126Z,9.07
2022-12-05T20:22:17.346Z,9.35
2022-12-05T20:24:43.575Z,5.97
2022-12-05T20:27:09.805Z,9.52
2022-12-05T20:29:38.842Z,5.22
2022-12-05T20:32:05.116Z,5.00
2022-12-05T20:34:31.452Z,5.07
2022-12-05T20:36:57.696Z,6.68
2022-12-05T20:39:24.707Z,6.45
2022-12-05T20:44:17.566Z,13.05
2022-12-05T20:46:43.843Z,11.63
2022-12-05T20:49:11.747Z,7.10
2022-12-05T20:51:40.292Z,5.90
2022-12-05T20:54:07.417Z,4.70
2022-12-05T20:56:34.208Z,5.18
2022-12-05T20:59:01.651Z,4.63
2022-12-05T21:01:29.121Z,4.07
2022-12-05T21:03:56.200Z,5.97
2022-12-05T21:06:23.478Z,5.07
2022-12-05T21:08:50.008Z,4.47
2022-12-05T21:11:16.496Z,12.43
2022-12-05T21:13:43.010Z,23.05
2022-12-05T21:16:11.151Z,18.13
2022-12-05T21:18:37.960Z,15.57
2022-12-05T21:21:05.464Z,15.50
2022-12-05T21:23:31.919Z,9.30
2022-12-05T21:26:05.497Z,9.30
2022-12-05T21:28:32.417Z,7.53
2022-12-05T21:33:28.786Z,7.53
2022-12-05T21:35:55.328Z,7.20
2022-12-05T21:38:21.565Z,7.00
2022-12-05T21:40:47.806Z,6.70
2022-12-05T21:43:14.036Z,6.72
2022-12-05T21:45:48.987Z,6.88
2022-12-05T21:48:17.932Z,6.38
2022-12-05T21:50:44.154Z,9.27
2022-12-05T21:53:10.386Z,8.65
2022-12-05T21:55:36.629Z,9.32
2022-12-05T21:58:02.896Z,13.75
2022-12-05T22:00:29.229Z,13.88
2022-12-05T22:02:55.547Z,5.90
2022-12-05T22:05:21.815Z,4.25
2022-12-05T22:07:48.099Z,3.85
2022-12-05T22:10:14.385Z,3.55
2022-12-05T22:12:40.855Z,2.95
2022-12-05T22:15:07.445Z,3.60
2022-12-05T22:17:33.672Z,4.10
2022-12-05T22:20:00.064Z,3.63
2022-12-05T22:22:26.514Z,4.13
2022-12-05T22:24:52.751Z,4.28
2022-12-05T22:27:18.996Z,4.40
2022-12-05T22:29:49.807Z,4.82
2022-12-05T22:32:18.780Z,4.55
2022-12-05T22:34:45.040Z,4.95
2022-12-05T22:37:11.264Z,4.95
2022-12-05T22:39:37.497Z,4.80
2022-12-05T22:42:03.724Z,4.47
2022-12-05T22:44:29.987Z,4.25
2022-12-05T22:46:56.300Z,4.55
2022-12-05T22:49:25.200Z,5.43
2022-12-05T22:51:51.505Z,5.40
2022-12-05T22:54:17.754Z,4.60
2022-12-05T22:56:44.018Z,5.38
2022-12-05T22:59:14.512Z,5.93
2022-12-05T23:01:41.154Z,6.53
2022-12-05T23:04:09.817Z,8.10
2022-12-05T23:06:36.669Z,7.80
2022-12-05T23:09:03.930Z,6.53
2022-12-05T23:11:30.862Z,6.20
2022-12-05T23:16:29.292Z,4.93
2022-12-05T23:18:56.693Z,5.50
2022-12-05T23:21:27.273Z,5.35
2022-12-05T23:23:54.880Z,5.28
2022-12-05T23:26:22.106Z,4.55
2022-12-05T23:28:48.400Z,4.25
2022-12-05T23:31:15.123Z,3.90
2022-12-05T23:33:41.429Z,3.60
2022-12-05T23:36:08.383Z,4.30
2022-12-05T23:38:35.375Z,4.68
2022-12-05T23:41:03.141Z,4.63
2022-12-05T23:43:30.131Z,5.40
2022-12-05T23:45:56.759Z,5.00
2022-12-05T23:48:23.011Z,5.57
2022-12-05T23:51:06.390Z,5.68
2022-12-05T23:53:33.669Z,5.90
2022-12-05T23:56:04.116Z,5.38
2022-12-05T23:58:30.838Z,4.82
